.
WxDataArchive / Data Records for 2014-03-27
2014-03-26 March 2014 2014-03-28

Data Records for Thursday, 27 March 2014

Time	Temp	Chill	HIndex	Humid	Dewpt	 Wind 	HiWind	WindDir	Rain 	Barom
-----	----	-----	------	-----	-----	------	------	-------	-----	-----
00:00	32.2	32.2	32.2	52	16.6	1	2	112	0.00	30.183 
00:05	32.2	32.2	32.2	52	16.6	0	3	112	0.00	30.183 
00:10	32.1	32.1	32.1	52	16.5	0	2	112	0.00	30.183 
00:15	31.9	31.9	31.9	52	16.3	1	4	112	0.00	30.176 
00:20	31.8	31.8	31.8	53	16.6	0	1	112	0.00	30.176 
00:25	31.6	31.6	31.6	52	16.0	0	2	112	0.00	30.176 
00:30	31.6	31.6	31.6	52	16.0	0	3	112	0.00	30.168 
00:35	31.6	31.6	31.6	51	15.6	1	3	112	0.00	30.168 
00:40	31.8	31.8	31.8	51	15.8	1	3	112	0.00	30.168 
00:45	31.8	31.8	31.8	51	15.8	0	3	112	0.00	30.168 
00:50	31.9	31.9	31.9	50	15.4	0	3	112	0.00	30.168 
00:55	32.1	32.1	32.1	50	15.6	1	3	112	0.00	30.168 
01:00	32.2	32.2	32.2	50	15.7	1	4	112	0.00	30.168 
01:05	32.4	32.4	32.4	49	15.4	1	4	112	0.00	30.168 
01:10	32.5	32.5	32.5	49	15.5	1	5	112	0.00	30.168 
01:15	32.7	32.7	32.7	48	15.2	1	4	112	0.00	30.159 
01:20	32.8	32.8	32.8	48	15.3	1	3	112	0.00	30.159 
01:25	32.8	32.8	32.8	48	15.3	1	4	112	0.00	30.159 
01:30	32.7	32.7	32.7	48	15.2	1	3	112	0.00	30.151 
01:35	32.8	32.8	32.8	47	14.8	2	7	90	0.00	30.151 
01:40	32.9	32.9	32.9	46	14.4	2	7	112	0.00	30.151 
01:45	33.1	33.1	33.1	47	15.1	1	4	112	0.00	30.146 
01:50	32.9	32.9	32.9	47	14.9	1	3	112	0.00	30.146 
01:55	32.9	32.9	32.9	48	15.4	1	4	112	0.00	30.146 
02:00	32.8	32.8	32.8	48	15.3	1	3	112	0.00	30.144 
02:05	32.8	32.8	32.8	48	15.3	1	3	112	0.00	30.144 
02:10	32.7	32.7	32.7	48	15.2	1	4	112	0.00	30.144 
02:15	32.5	32.5	32.5	48	15.0	1	5	112	0.00	30.134 
02:20	32.5	32.5	32.5	48	15.0	2	5	112	0.00	30.134 
02:25	32.5	32.5	32.5	48	15.0	1	6	112	0.00	30.134 
02:30	32.5	32.5	32.5	49	15.5	1	4	90	0.00	30.131 
02:35	32.4	32.4	32.4	49	15.4	2	4	112	0.00	30.131 
02:40	32.4	32.4	32.4	49	15.4	1	5	90	0.00	30.131 
02:45	32.4	32.4	32.4	48	14.9	1	6	90	0.00	30.128 
02:50	32.4	32.4	32.4	48	14.9	2	4	112	0.00	30.128 
02:55	32.2	32.2	32.2	49	15.2	1	5	112	0.00	30.128 
03:00	32.2	32.2	32.2	48	14.7	2	4	112	0.00	30.118 
03:05	32.2	32.2	32.2	48	14.7	2	5	112	0.00	30.118 
03:10	32.1	32.1	32.1	48	14.6	1	4	112	0.00	30.118 
03:15	32.1	32.1	32.1	48	14.6	1	4	112	0.00	30.110 
03:20	31.9	31.9	31.9	49	14.9	1	3	112	0.00	30.110 
03:25	31.8	31.8	31.8	49	14.8	1	3	112	0.00	30.110 
03:30	31.8	31.8	31.8	50	15.3	1	3	112	0.00	30.100 
03:35	31.6	31.6	31.6	50	15.1	1	3	112	0.00	30.100 
03:40	31.5	31.5	31.5	51	15.5	1	2	112	0.00	30.100 
03:45	31.3	31.3	31.3	51	15.3	1	4	90	0.00	30.101 
03:50	31.2	31.2	31.2	51	15.2	1	3	112	0.00	30.101 
03:55	31.2	31.2	31.2	52	15.6	1	3	135	0.00	30.101 
04:00	31.2	31.2	31.2	52	15.6	1	3	112	0.00	30.093 
04:05	31.0	31.0	31.0	53	15.9	1	3	112	0.00	30.093 
04:10	31.0	31.0	31.0	53	15.9	1	4	112	0.00	30.093 
04:15	31.0	31.0	31.0	53	15.9	1	4	112	0.00	30.086 
04:20	31.2	31.2	31.2	53	16.1	1	4	90	0.00	30.086 
04:25	31.2	31.2	31.2	54	16.5	1	3	90	0.00	30.086 
04:30	31.5	31.5	31.5	53	16.4	2	7	90	0.00	30.087 
04:35	31.6	31.6	31.6	53	16.5	1	6	112	0.00	30.087 
04:40	31.8	31.8	31.8	53	16.6	1	3	112	0.00	30.087 
04:45	31.9	31.9	31.9	52	16.3	1	3	112	0.00	30.077 
04:50	32.1	32.1	32.1	53	16.9	1	5	112	0.00	30.077 
04:55	32.2	32.2	32.2	53	17.0	1	4	112	0.00	30.077 
05:00	32.4	32.4	32.4	52	16.8	1	4	90	0.00	30.078 
05:05	32.5	32.5	32.5	52	16.9	1	4	135	0.00	30.078 
05:10	32.8	32.8	32.8	51	16.7	2	6	112	0.00	30.078 
05:15	32.9	32.9	32.9	51	16.8	1	4	90	0.00	30.077 
05:20	33.1	33.1	33.1	51	17.0	1	6	90	0.00	30.077 
05:25	33.2	33.2	33.2	51	17.1	1	4	68	0.00	30.077 
05:30	33.2	33.2	33.2	51	17.1	1	3	68	0.00	30.070 
05:35	33.4	33.4	33.4	51	17.2	1	3	22	0.00	30.070 
05:40	33.5	33.5	33.5	50	16.9	1	3	112	0.00	30.070 
05:45	33.5	33.5	33.5	46	15.0	2	6	112	0.00	30.066 
05:50	33.7	33.7	33.7	49	16.6	2	5	90	0.00	30.066 
05:55	33.7	33.7	33.7	50	17.1	1	6	112	0.00	30.066 
06:00	33.8	33.8	33.8	49	16.7	2	6	112	0.00	30.065 
06:05	33.8	33.8	33.8	50	17.2	1	4	135	0.00	30.065 
06:10	33.8	33.8	33.8	49	16.7	1	11	90	0.00	30.065 
06:15	33.8	33.8	33.8	50	17.2	2	4	90	0.00	30.065 
06:20	34.0	34.0	34.0	49	16.9	2	4	112	0.00	30.065 
06:25	34.0	34.0	34.0	49	16.9	2	5	90	0.00	30.065 
06:30	34.0	34.0	34.0	49	16.9	2	5	90	0.00	30.062 
06:35	34.0	34.0	34.0	50	17.3	1	4	90	0.00	30.062 
06:40	34.0	34.0	34.0	50	17.3	1	5	90	0.00	30.062 
06:45	34.0	34.0	34.0	49	16.9	1	5	90	0.00	30.060 
06:50	34.1	34.1	34.1	49	17.0	2	10	90	0.00	30.060 
06:55	34.1	34.1	34.1	50	17.4	1	3	90	0.00	30.060 
07:00	34.3	34.3	34.3	50	17.6	1	4	90	0.00	30.067 
07:05	34.3	34.3	34.3	49	17.1	2	5	112	0.00	30.067 
07:10	34.4	34.4	34.4	49	17.2	1	4	112	0.00	30.067 
07:15	34.4	34.4	34.4	49	17.2	2	9	90	0.00	30.062 
07:20	34.4	34.4	34.4	49	17.2	1	5	90	0.00	30.062 
07:25	34.6	34.6	34.6	49	17.4	1	5	90	0.00	30.062 
07:30	34.6	34.6	34.6	50	17.9	3	7	90	0.00	30.052 
07:35	34.6	34.6	34.6	52	18.8	2	5	112	0.00	30.052 
07:40	34.4	34.4	34.4	54	19.5	2	5	112	0.00	30.052 
07:45	34.4	34.4	34.4	54	19.5	2	6	90	0.00	30.054 
07:50	34.4	34.4	34.4	54	19.5	2	5	112	0.00	30.054 
07:55	34.4	34.4	34.4	55	19.9	2	5	112	0.00	30.054 
08:00	34.3	34.3	34.3	59	21.5	1	5	68	0.00	30.062 
08:05	34.1	34.1	34.1	60	21.7	2	7	90	0.00	30.062 
08:10	34.0	34.0	34.0	62	22.4	2	7	112	0.00	30.062 
08:15	34.0	34.0	34.0	62	22.4	2	5	112	0.00	30.064 
08:20	33.8	33.8	33.8	63	22.6	1	5	90	0.00	30.064 
08:25	33.8	33.8	33.8	64	22.9	2	7	90	0.00	30.064 
08:30	33.8	33.8	33.8	64	22.9	3	7	112	0.00	30.057 
08:35	33.8	33.8	33.8	65	23.3	2	5	90	0.00	30.057 
08:40	33.8	33.8	33.8	65	23.3	2	6	90	0.00	30.057 
08:45	33.8	33.8	33.8	66	23.7	3	7	90	0.00	30.051 
08:50	33.7	33.7	33.7	67	23.9	2	11	68	0.00	30.051 
08:55	33.7	33.7	33.7	68	24.3	3	7	90	0.00	30.051 
09:00	33.5	33.5	33.5	69	24.4	2	6	112	0.01	30.033 
09:05	33.5	33.5	33.5	69	24.4	2	6	112	0.00	30.033 
09:10	33.5	33.5	33.5	68	24.1	2	5	112	0.00	30.033 
09:15	33.7	33.7	33.7	68	24.3	2	5	90	0.00	30.025 
09:20	33.8	33.8	33.8	67	24.0	2	9	90	0.00	30.025 
09:25	34.0	34.0	34.0	66	23.9	3	9	112	0.00	30.025 
09:30	34.1	34.1	34.1	67	24.3	2	5	135	0.00	30.013 
09:35	34.3	34.3	34.3	67	24.5	1	4	112	0.00	30.013 
09:40	34.3	34.3	34.3	67	24.5	2	4	112	0.00	30.013 
09:45	34.4	34.4	34.4	66	24.2	2	5	112	0.00	30.008 
09:50	34.4	34.4	34.4	66	24.2	1	4	112	0.00	30.008 
09:55	34.4	34.4	34.4	66	24.2	1	4	112	0.00	30.008 
10:00	34.6	34.6	34.6	65	24.1	2	5	90	0.00	30.010 
10:05	34.6	34.6	34.6	65	24.1	2	5	112	0.00	30.010 
10:10	34.7	34.7	34.7	65	24.2	2	5	90	0.00	30.010 
10:15	34.7	34.7	34.7	65	24.2	2	5	90	0.00	30.017 
10:20	34.9	34.9	34.9	65	24.3	2	7	90	0.00	30.017 
10:25	35.0	35.0	35.0	65	24.4	1	5	270	0.00	30.017 
10:30	35.2	35.2	35.2	66	25.0	1	3	68	0.00	30.037 
10:35	35.2	35.2	35.2	65	24.6	2	8	112	0.00	30.037 
10:40	35.3	35.3	35.3	64	24.4	2	5	112	0.00	30.037 
10:45	35.6	35.6	35.6	62	23.9	2	9	90	0.00	30.017 
10:50	35.9	35.9	35.9	61	23.8	3	9	90	0.00	30.017 
10:55	36.2	36.2	36.2	62	24.5	1	6	90	0.00	30.017 
11:00	36.5	36.5	36.5	61	24.3	2	10	90	0.00	30.007 
11:05	36.8	36.8	36.8	61	24.6	2	7	248	0.00	30.007 
11:10	36.9	36.9	36.9	62	25.1	2	11	90	0.00	30.007 
11:15	37.0	37.0	37.0	62	25.2	2	6	90	0.00	30.004 
11:20	37.0	37.0	37.0	62	25.2	2	6	90	0.00	30.004 
11:25	37.2	37.2	37.2	63	25.8	2	9	90	0.00	30.004 
11:30	37.2	37.2	37.2	64	26.2	2	5	90	0.00	30.000 
11:35	37.2	37.2	37.2	66	26.9	1	7	90	0.00	30.000 
11:40	37.2	37.2	37.2	66	26.9	3	8	90	0.00	30.000 
11:45	37.3	37.3	37.3	67	27.4	2	5	90	0.00	29.999 
11:50	37.5	37.5	37.5	69	28.3	2	10	90	0.00	29.999 
11:55	37.6	37.6	37.6	69	28.4	2	10	90	0.01	29.999 
12:00	37.9	37.9	37.9	70	29.0	2	7	68	0.00	29.984 
12:05	38.3	38.3	38.3	70	29.4	3	6	90	0.00	29.984 
12:10	38.3	38.3	38.3	70	29.4	2	10	90	0.00	29.984 
12:15	38.3	38.3	38.3	71	29.7	2	6	68	0.00	29.984 
12:20	38.3	38.3	38.3	71	29.7	2	9	68	0.00	29.984 
12:25	38.3	38.3	38.3	72	30.1	2	8	90	0.00	29.984 
12:30	38.5	38.5	38.5	72	30.3	2	8	90	0.00	29.969 
12:35	38.6	38.6	38.6	73	30.7	3	9	90	0.00	29.969 
12:40	38.3	38.3	38.3	73	30.4	2	8	90	0.00	29.969 
12:45	38.2	38.2	38.2	73	30.3	3	10	112	0.00	29.954 
12:50	38.2	38.2	38.2	73	30.3	3	7	90	0.00	29.954 
12:55	38.2	38.2	38.2	73	30.3	3	7	90	0.00	29.954 
13:00	38.5	38.5	38.5	72	30.3	3	9	112	0.00	29.933 
13:05	38.8	38.8	38.8	71	30.2	3	14	112	0.00	29.933 
13:10	39.1	39.1	39.1	70	30.2	3	12	90	0.00	29.933 
13:15	39.3	36.5	39.3	69	30.0	4	9	90	0.00	29.920 
13:20	39.5	39.5	39.5	69	30.2	2	6	90	0.00	29.920 
13:25	39.3	36.5	39.3	68	29.6	4	9	90	0.00	29.920 
13:30	39.3	39.3	39.3	67	29.3	2	7	112	0.00	29.913 
13:35	39.2	39.2	39.2	67	29.2	3	5	90	0.00	29.913 
13:40	39.2	36.4	39.2	66	28.8	4	11	90	0.00	29.913 
13:45	39.2	35.5	39.2	66	28.8	5	11	112	0.00	29.904 
13:50	39.3	39.3	39.3	66	28.9	3	6	112	0.00	29.904 
13:55	39.5	39.5	39.5	66	29.1	3	8	90	0.00	29.904 
14:00	39.6	39.6	39.6	65	28.8	2	7	112	0.00	29.904 
14:05	39.8	36.2	39.8	64	28.6	5	13	90	0.00	29.904 
14:10	40.1	40.1	40.1	63	28.5	3	10	68	0.00	29.904 
14:15	40.2	40.2	40.2	63	28.6	2	10	90	0.00	29.893 
14:20	40.2	40.2	40.2	63	28.6	1	5	68	0.00	29.893 
14:25	40.3	40.3	40.3	62	28.3	2	5	112	0.00	29.893 
14:30	40.5	40.5	40.5	62	28.5	2	7	112	0.00	29.889 
14:35	40.6	40.6	40.6	62	28.6	2	9	90	0.00	29.889 
14:40	40.8	40.8	40.8	63	29.2	3	6	90	0.00	29.889 
14:45	40.9	40.9	40.9	66	30.4	2	6	112	0.00	29.882 
14:50	40.9	40.9	40.9	70	31.9	1	5	90	0.01	29.882 
14:55	40.6	40.6	40.6	72	32.3	2	5	90	0.00	29.882 
15:00	40.3	40.3	40.3	74	32.7	1	10	292	0.00	29.874 
15:05	40.1	40.1	40.1	76	33.2	1	3	270	0.01	29.874 
15:10	39.9	39.9	39.9	77	33.3	1	6	68	0.00	29.874 
15:15	39.8	39.8	39.8	79	33.8	1	4	112	0.01	29.867 
15:20	39.6	39.6	39.6	79	33.6	1	3	338	0.00	29.867 
15:25	39.5	39.5	39.5	80	33.9	1	3	338	0.00	29.867 
15:30	39.5	39.5	39.5	80	33.9	1	7	338	0.00	29.861 
15:35	39.6	39.6	39.6	80	33.9	1	5	112	0.00	29.861 
15:40	39.9	39.9	39.9	79	33.9	1	5	112	0.00	29.861 
15:45	40.1	40.1	40.1	80	34.4	0	3	292	0.01	29.856 
15:50	40.1	40.1	40.1	79	34.1	1	5	90	0.00	29.856 
15:55	40.2	40.2	40.2	80	34.5	1	5	90	0.00	29.856 
16:00	40.2	40.2	40.2	80	34.5	1	6	90	0.01	29.851 
16:05	40.1	40.1	40.1	81	34.7	1	4	135	0.01	29.851 
16:10	39.9	39.9	39.9	81	34.6	1	4	90	0.01	29.851 
16:15	39.8	39.8	39.8	82	34.8	1	5	68	0.00	29.842 
16:20	39.8	39.8	39.8	83	35.1	1	4	90	0.01	29.842 
16:25	39.8	39.8	39.8	83	35.1	1	6	90	0.00	29.842 
16:30	39.6	39.6	39.6	83	34.9	2	7	112	0.00	29.841 
16:35	39.6	39.6	39.6	84	35.2	1	3	112	0.00	29.841 
16:40	39.6	39.6	39.6	84	35.2	2	4	112	0.00	29.841 
16:45	39.6	39.6	39.6	84	35.2	2	5	112	0.00	29.834 
16:50	39.6	39.6	39.6	84	35.2	1	4	112	0.00	29.834 
16:55	39.8	39.8	39.8	84	35.4	2	5	135	0.00	29.834 
17:00	39.8	39.8	39.8	84	35.4	1	4	135	0.00	29.824 
17:05	39.9	39.9	39.9	83	35.2	2	7	112	0.01	29.824 
17:10	40.2	40.2	40.2	82	35.2	1	4	112	0.00	29.824 
17:15	40.3	40.3	40.3	82	35.2	1	3	112	0.00	29.811 
17:20	40.5	40.5	40.5	81	35.1	1	4	112	0.00	29.811 
17:25	40.8	40.8	40.8	80	35.1	2	3	112	0.00	29.811 
17:30	40.9	40.9	40.9	79	34.9	1	3	112	0.00	29.807 
17:35	41.1	41.1	41.1	78	34.8	2	4	112	0.00	29.807 
17:40	41.3	41.3	41.3	77	34.6	2	6	112	0.00	29.807 
17:45	41.6	41.6	41.6	77	34.9	1	4	90	0.00	29.789 
17:50	41.8	41.8	41.8	75	34.5	1	5	112	0.00	29.789 
17:55	42.1	42.1	42.1	75	34.8	2	5	112	0.00	29.789 
18:00	42.3	42.3	42.3	74	34.6	1	4	112	0.00	29.776 
18:05	42.6	42.6	42.6	73	34.6	1	3	112	0.00	29.776 
18:10	42.8	42.8	42.8	72	34.4	1	3	112	0.00	29.776 
18:15	42.9	42.9	42.9	72	34.5	1	4	112	0.00	29.767 
18:20	43.1	43.1	43.1	72	34.7	1	2	112	0.00	29.767 
18:25	43.1	43.1	43.1	72	34.7	0	2	112	0.00	29.767 
18:30	43.1	43.1	43.1	71	34.3	1	4	112	0.00	29.749 
18:35	43.2	43.2	43.2	71	34.4	1	3	135	0.00	29.749 
18:40	43.2	43.2	43.2	72	34.8	0	2	135	0.00	29.749 
18:45	43.2	43.2	43.2	71	34.4	0	3	135	0.00	29.744 
18:50	43.2	43.2	43.2	72	34.8	0	3	135	0.00	29.744 
18:55	43.1	43.1	43.1	73	35.0	1	2	135	0.00	29.744 
19:00	42.9	42.9	42.9	73	34.9	0	2	135	0.00	29.733 
19:05	42.6	42.6	42.6	73	34.6	1	2	135	0.00	29.733 
19:10	42.6	42.6	42.6	73	34.6	1	3	135	0.00	29.733 
19:15	42.6	42.6	42.6	73	34.6	1	3	135	0.00	29.728 
19:20	42.6	42.6	42.6	73	34.6	0	2	135	0.00	29.728 
19:25	42.6	42.6	42.6	73	34.6	1	2	135	0.00	29.728 
19:30	42.6	42.6	42.6	73	34.6	0	1	135	0.00	29.719 
19:35	42.5	42.5	42.5	73	34.5	0	2	135	0.00	29.719 
19:40	42.5	42.5	42.5	73	34.5	0	2	135	0.00	29.719 
19:45	42.6	42.6	42.6	73	34.6	0	4	135	0.00	29.716 
19:50	42.8	42.8	42.8	72	34.4	1	3	135	0.00	29.716 
19:55	42.9	42.9	42.9	71	34.2	0	3	112	0.00	29.716 
20:00	43.2	43.2	43.2	69	33.7	1	3	112	0.00	29.713 
20:05	43.6	43.6	43.6	69	34.1	0	2	112	0.00	29.713 
20:10	44.1	44.1	44.1	67	33.9	1	4	112	0.00	29.713 
20:15	44.5	44.5	44.5	66	33.9	1	4	112	0.00	29.710 
20:20	45.1	45.1	45.1	65	34.0	1	4	135	0.00	29.710 
20:25	45.8	45.8	45.8	64	34.3	1	4	135	0.00	29.710 
20:30	46.5	46.5	46.5	63	34.6	1	5	112	0.00	29.708 
20:35	47.1	47.1	47.1	63	35.2	1	3	112	0.00	29.708 
20:40	47.7	47.7	47.7	62	35.3	2	4	112	0.00	29.708 
20:45	48.3	48.3	48.3	61	35.5	2	5	0	0.00	29.706 
20:50	48.6	48.6	48.6	61	35.8	2	7	22	0.00	29.706 
20:55	48.9	48.9	48.9	61	36.0	2	5	112	0.00	29.706 
21:00	49.1	49.1	49.1	61	36.2	2	7	270	0.00	29.707 
21:05	49.4	49.4	49.4	61	36.5	3	9	68	0.00	29.707 
21:10	49.5	49.5	49.5	61	36.6	3	10	90	0.00	29.707 
21:15	49.5	49.5	49.5	61	36.6	3	6	90	0.00	29.703 
21:20	49.5	49.5	49.5	61	36.6	3	9	112	0.00	29.703 
21:25	49.5	49.5	49.5	62	37.0	3	9	112	0.00	29.703 
21:30	49.4	49.4	49.4	62	36.9	2	10	90	0.00	29.703 
21:35	49.1	49.1	49.1	64	37.5	2	5	135	0.00	29.703 
21:40	48.9	48.9	48.9	64	37.3	3	6	90	0.00	29.703 
21:45	48.8	48.8	48.8	66	38.0	3	8	90	0.00	29.718 
21:50	48.0	48.0	48.0	71	39.1	3	9	68	0.01	29.718 
21:55	47.1	47.1	47.1	75	39.6	3	7	45	0.01	29.718 
22:00	46.5	46.5	46.5	77	39.7	3	15	90	0.01	29.717 
22:05	46.2	46.2	46.2	78	39.7	2	7	112	0.00	29.717 
22:10	46.0	46.0	46.0	80	40.2	2	8	112	0.01	29.717 
22:15	45.7	45.7	45.7	81	40.2	2	9	112	0.00	29.704 
22:20	45.5	45.5	45.5	81	40.0	2	10	112	0.00	29.704 
22:25	45.5	45.5	45.5	81	40.0	2	10	90	0.00	29.704 
22:30	45.4	45.4	45.4	81	39.9	2	6	68	0.00	29.683 
22:35	45.4	45.4	45.4	80	39.6	2	6	90	0.00	29.683 
22:40	45.4	45.4	45.4	79	39.3	3	5	112	0.00	29.683 
22:45	45.7	45.7	45.7	77	38.9	3	10	90	0.00	29.674 
22:50	45.8	45.8	45.8	76	38.7	3	10	90	0.00	29.674 
22:55	46.0	46.0	46.0	76	38.9	2	6	68	0.00	29.674 
23:00	46.1	46.1	46.1	75	38.6	2	7	90	0.00	29.670 
23:05	46.2	46.2	46.2	74	38.4	3	7	90	0.00	29.670 
23:10	46.4	46.4	46.4	74	38.6	2	7	90	0.00	29.670 
23:15	46.4	46.4	46.4	73	38.2	2	6	90	0.00	29.662 
23:20	46.5	46.5	46.5	73	38.3	2	10	90	0.00	29.662 
23:25	46.7	46.7	46.7	72	38.2	2	11	68	0.00	29.662 
23:30	46.8	46.8	46.8	72	38.3	2	5	45	0.00	29.659 
23:35	47.0	47.0	47.0	71	38.1	2	8	45	0.00	29.659 
23:40	47.0	47.0	47.0	71	38.1	2	6	45	0.00	29.659 
23:45	47.0	47.0	47.0	70	37.7	2	6	45	0.00	29.653 
23:50	47.1	47.1	47.1	70	37.8	2	7	90	0.00	29.653 
23:55	47.1	47.1	47.1	70	37.8	2	9	68	0.00	29.653 

CoCoRaHS
IN-AL-39
A2 Web Hosting
Creative Commons License
GoDaddy
search engine by freefind advanced

loaded 2018-11-12 19:12:34 • last modified 2010-11-18 10:43:29
Privacy PolicyDisclaimer
• wx.awcolley.com is powered by PmWiki v.2002016 •
• all content (unless otherwise noted) © 2018 A W Colley